createdAt,value
2023-03-22T00:00:42.037Z,99272.93
2023-03-22T00:03:10.564Z,99275.00
2023-03-22T00:05:40.133Z,99272.75
2023-03-22T00:08:27.875Z,99271.14
2023-03-22T00:10:55.911Z,99274.02
2023-03-22T00:13:25.620Z,99275.13
2023-03-22T00:15:57.322Z,99276.55
2023-03-22T00:18:31.592Z,99277.51
2023-03-22T00:20:59.850Z,99278.85
2023-03-22T00:23:28.244Z,99280.83
2023-03-22T00:25:58.524Z,99286.98
2023-03-22T00:28:27.593Z,99287.02
2023-03-22T00:31:02.687Z,99286.86
2023-03-22T00:33:31.302Z,99287.42
2023-03-22T00:36:03.384Z,99285.27
2023-03-22T00:38:44.051Z,99285.27
2023-03-22T00:41:17.407Z,99284.31
2023-03-22T00:43:49.207Z,99286.06
2023-03-22T00:46:19.533Z,99284.95
2023-03-22T00:48:48.078Z,99284.15
2023-03-22T00:51:16.305Z,99283.02
2023-03-22T00:53:45.754Z,99283.67
2023-03-22T00:56:16.055Z,99279.62
2023-03-22T00:59:05.062Z,99277.79
2023-03-22T01:01:34.828Z,99281.08
2023-03-22T01:04:05.200Z,99279.48
2023-03-22T01:06:33.951Z,99283.27
2023-03-22T01:09:02.059Z,99284.38
2023-03-22T01:11:31.667Z,99279.44
2023-03-22T01:13:59.739Z,99281.29
2023-03-22T01:16:28.065Z,99281.46
2023-03-22T01:18:56.548Z,99276.13
2023-03-22T01:21:24.684Z,99276.22
2023-03-22T01:23:52.821Z,99276.30
2023-03-22T01:26:21.168Z,99276.54
2023-03-22T01:28:49.920Z,99276.46
2023-03-22T01:31:17.883Z,99273.59
2023-03-22T01:33:46.066Z,99276.46
2023-03-22T01:36:14.276Z,99281.02
2023-03-22T01:38:45.071Z,99281.73
2023-03-22T01:41:13.362Z,99284.27
2023-03-22T01:43:42.238Z,99290.58
2023-03-22T01:46:14.880Z,99291.06
2023-03-22T01:48:46.827Z,99293.30
2023-03-22T01:51:27.766Z,99294.11
2023-03-22T01:54:30.723Z,99295.70
2023-03-22T01:56:58.828Z,99297.39
2023-03-22T01:59:36.507Z,99298.95
2023-03-22T02:02:31.016Z,99302.23
2023-03-22T02:05:09.996Z,99302.70
2023-03-22T02:07:38.022Z,99302.61
2023-03-22T02:10:23.833Z,99301.73
2023-03-22T02:13:07.817Z,99303.55
2023-03-22T02:16:17.537Z,99301.16
2023-03-22T02:18:56.033Z,99303.77
2023-03-22T02:21:51.795Z,99305.75
2023-03-22T02:24:28.157Z,99308.14
2023-03-22T02:27:34.098Z,99308.20
2023-03-22T02:30:22.081Z,99311.24
2023-03-22T02:33:07.581Z,99314.36
2023-03-22T02:36:08.976Z,99316.17
2023-03-22T02:39:14.959Z,99316.91
2023-03-22T02:42:03.891Z,99320.83
2023-03-22T02:44:42.684Z,99316.61
2023-03-22T02:47:35.589Z,99320.22
2023-03-22T02:50:19.326Z,99318.71
2023-03-22T02:52:56.165Z,99324.77
2023-03-22T02:55:29.508Z,99323.34
2023-03-22T02:58:00.511Z,99328.06
2023-03-22T03:00:29.099Z,99330.31
2023-03-22T03:03:02.066Z,99335.49
2023-03-22T03:05:31.376Z,99338.21
2023-03-22T03:08:00.746Z,99339.48
2023-03-22T03:10:32.228Z,99339.48
2023-03-22T03:13:03.806Z,99343.30
2023-03-22T03:15:32.092Z,99345.31
2023-03-22T03:18:16.118Z,99343.63
2023-03-22T03:21:00.448Z,99351.91
2023-03-22T03:23:48.937Z,99351.35
2023-03-22T03:26:28.221Z,99353.66
2023-03-22T03:29:05.344Z,99358.59
2023-03-22T03:31:47.649Z,99355.38
2023-03-22T03:34:17.784Z,99357.18
2023-03-22T03:36:50.960Z,99368.50
2023-03-22T03:39:19.001Z,99363.77
2023-03-22T03:41:47.221Z,99362.82
2023-03-22T03:44:18.319Z,99364.13
2023-03-22T03:46:46.877Z,99363.70
2023-03-22T03:49:16.128Z,99367.55
2023-03-22T03:51:49.839Z,99368.83
2023-03-22T03:54:18.059Z,99369.00
2023-03-22T03:56:47.841Z,99369.17
2023-03-22T03:59:19.927Z,99371.78
2023-03-22T04:01:53.564Z,99370.83
2023-03-22T04:04:30.220Z,99368.34
2023-03-22T04:07:04.167Z,99365.86
2023-03-22T04:09:36.843Z,99368.38
2023-03-22T04:12:17.449Z,99371.01
2023-03-22T04:14:52.714Z,99371.49
2023-03-22T04:17:23.370Z,99365.91
2023-03-22T04:19:56.627Z,99364.31
2023-03-22T04:22:26.639Z,99365.92
2023-03-22T04:24:58.090Z,99370.62
2023-03-22T04:27:29.416Z,99373.92
2023-03-22T04:30:11.419Z,99372.59
2023-03-22T04:33:08.645Z,99374.04
2023-03-22T04:36:16.007Z,99383.88
2023-03-22T04:38:55.456Z,99387.24
2023-03-22T04:41:24.806Z,99391.11
2023-03-22T04:43:54.923Z,99392.51
2023-03-22T04:46:24.148Z,99396.45
2023-03-22T04:49:01.217Z,99396.66
2023-03-22T04:51:32.182Z,99401.72
2023-03-22T04:54:35.715Z,99405.02
2023-03-22T04:57:05.661Z,99406.48
2023-03-22T04:59:38.556Z,99403.14
2023-03-22T05:02:06.840Z,99403.97
2023-03-22T05:04:43.277Z,99408.91
2023-03-22T05:07:31.165Z,99408.31
2023-03-22T05:10:01.380Z,99408.88
2023-03-22T05:12:29.941Z,99409.22
2023-03-22T05:15:21.074Z,99407.56
2023-03-22T05:17:52.927Z,99412.58
2023-03-22T05:20:21.119Z,99412.91
2023-03-22T05:22:59.271Z,99414.69
2023-03-22T05:25:30.131Z,99415.23
2023-03-22T05:28:04.036Z,99418.08
2023-03-22T05:30:44.391Z,99423.48
2023-03-22T05:33:29.720Z,99423.35
2023-03-22T05:35:58.657Z,99423.77
2023-03-22T05:38:30.704Z,99426.97
2023-03-22T05:41:00.840Z,99430.94
2023-03-22T05:43:32.803Z,99433.98
2023-03-22T05:46:09.057Z,99437.58
2023-03-22T05:49:01.100Z,99440.12
2023-03-22T05:51:32.270Z,99441.89
2023-03-22T05:54:00.552Z,99442.70
2023-03-22T05:56:35.494Z,99449.08
2023-03-22T05:59:07.199Z,99449.57
2023-03-22T06:01:36.560Z,99456.05
2023-03-22T06:04:14.684Z,99455.65
2023-03-22T06:06:56.171Z,99459.08
2023-03-22T06:09:43.084Z,99458.52
2023-03-22T06:12:24.682Z,99461.72
2023-03-22T06:14:59.062Z,99469.16
2023-03-22T06:17:49.484Z,99469.01
2023-03-22T06:20:22.239Z,99475.40
2023-03-22T06:22:55.238Z,99479.23
2023-03-22T06:25:24.415Z,99478.44
2023-03-22T06:27:55.061Z,99480.94
2023-03-22T06:30:23.959Z,99488.91
2023-03-22T06:33:12.631Z,99488.05
2023-03-22T06:35:45.612Z,99495.09
2023-03-22T06:38:17.886Z,99494.55
2023-03-22T06:40:46.669Z,99495.66
2023-03-22T06:43:14.985Z,99496.05
2023-03-22T06:45:47.678Z,99498.33
2023-03-22T06:48:16.326Z,99495.77
2023-03-22T06:51:14.047Z,99497.90
2023-03-22T06:53:42.956Z,99503.81
2023-03-22T06:56:11.803Z,99503.87
2023-03-22T06:58:47.841Z,99504.40
2023-03-22T07:01:15.934Z,99503.81
2023-03-22T07:03:46.058Z,99505.45
2023-03-22T07:06:16.817Z,99507.34
2023-03-22T07:08:47.594Z,99505.14
2023-03-22T07:11:20.428Z,99509.61
2023-03-22T07:13:57.191Z,99508.66
2023-03-22T07:16:28.625Z,99508.84
2023-03-22T07:19:02.792Z,99512.04
2023-03-22T07:21:32.933Z,99515.98
2023-03-22T07:24:04.479Z,99515.16
2023-03-22T07:26:32.990Z,99509.77
2023-03-22T07:29:05.023Z,99508.50
2023-03-22T07:31:36.801Z,99502.50
2023-03-22T07:34:23.224Z,99500.59
2023-03-22T07:37:08.649Z,99501.73
2023-03-22T07:39:42.873Z,99497.16
2023-03-22T07:42:13.720Z,99500.37
2023-03-22T07:45:00.515Z,99497.42
2023-03-22T07:47:40.699Z,99499.41
2023-03-22T07:50:35.720Z,99501.81
2023-03-22T07:53:05.236Z,99503.33
2023-03-22T07:55:33.892Z,99502.61
2023-03-22T07:58:03.983Z,99498.35
2023-03-22T08:00:35.441Z,99503.05
2023-03-22T08:03:25.394Z,99504.42
2023-03-22T08:06:06.709Z,99507.59
2023-03-22T08:08:35.720Z,99506.58
2023-03-22T08:11:06.853Z,99505.27
2023-03-22T08:13:35.905Z,99507.52
2023-03-22T08:16:05.498Z,99508.91
2023-03-22T08:18:37.383Z,99509.66
2023-03-22T08:21:06.646Z,99507.17
2023-03-22T08:23:42.111Z,99509.78
2023-03-22T08:26:33.573Z,99510.60
2023-03-22T08:29:09.719Z,99511.83
2023-03-22T08:31:38.460Z,99508.52
2023-03-22T08:34:06.917Z,99509.89
2023-03-22T08:36:36.889Z,99508.59
2023-03-22T08:39:05.437Z,99517.61
2023-03-22T08:41:42.404Z,99516.15
2023-03-22T08:44:11.012Z,99513.86
2023-03-22T08:46:40.410Z,99515.86
2023-03-22T08:49:10.585Z,99520.17
2023-03-22T08:51:53.076Z,99518.30
2023-03-22T08:54:39.728Z,99517.05
2023-03-22T08:57:44.776Z,99515.76
2023-03-22T09:00:48.936Z,99514.79
2023-03-22T09:03:28.930Z,99518.31
2023-03-22T09:05:59.382Z,99513.59
2023-03-22T09:08:31.762Z,99512.31
2023-03-22T09:11:08.795Z,99514.95
2023-03-22T09:13:37.382Z,99512.02
2023-03-22T09:16:10.957Z,99508.67
2023-03-22T09:18:40.672Z,99508.83
2023-03-22T09:21:16.276Z,99505.59
2023-03-22T09:23:51.822Z,99511.80
2023-03-22T09:26:26.832Z,99512.52
2023-03-22T09:28:55.913Z,99514.16
2023-03-22T09:31:24.257Z,99513.36
2023-03-22T09:34:02.432Z,99511.09
2023-03-22T09:36:32.475Z,99515.77
2023-03-22T09:39:01.368Z,99517.55
2023-03-22T09:41:39.696Z,99516.46
2023-03-22T09:44:15.720Z,99515.64
2023-03-22T09:46:46.695Z,99517.33
2023-03-22T09:49:19.428Z,99518.55
2023-03-22T09:51:51.574Z,99518.55
2023-03-22T09:54:28.704Z,99520.48
2023-03-22T09:57:05.365Z,99514.63
2023-03-22T09:59:40.191Z,99513.47
2023-03-22T10:02:35.691Z,99513.29
2023-03-22T10:05:37.357Z,99515.85
2023-03-22T10:08:30.458Z,99515.92
2023-03-22T10:10:59.747Z,99516.21
2023-03-22T10:13:40.964Z,99516.21
2023-03-22T10:16:13.636Z,99512.02
2023-03-22T10:18:45.468Z,99506.34
2023-03-22T10:21:17.730Z,99502.70
2023-03-22T10:24:26.218Z,99507.96
2023-03-22T10:26:54.472Z,99504.05
2023-03-22T10:29:53.505Z,99500.94
2023-03-22T10:32:56.466Z,99510.35
2023-03-22T10:35:25.511Z,99503.01
2023-03-22T10:37:55.097Z,99502.66
2023-03-22T10:40:30.590Z,99501.58
2023-03-22T10:43:05.990Z,99496.96
2023-03-22T10:45:37.278Z,99497.48
2023-03-22T10:48:19.255Z,99495.91
2023-03-22T10:50:47.447Z,99496.26
2023-03-22T10:53:37.525Z,99496.34
2023-03-22T10:56:06.313Z,99495.25
2023-03-22T10:58:34.507Z,99489.06
2023-03-22T11:01:11.160Z,99486.45
2023-03-22T11:03:50.313Z,99485.11
2023-03-22T11:06:35.190Z,99483.14
2023-03-22T11:09:25.570Z,99483.13
2023-03-22T11:12:00.394Z,99484.20
2023-03-22T11:14:43.329Z,99481.36
2023-03-22T11:17:14.313Z,99476.91
2023-03-22T11:19:54.769Z,99477.21
2023-03-22T11:22:36.580Z,99476.86
2023-03-22T11:25:16.747Z,99470.04
2023-03-22T11:27:53.754Z,99467.91
2023-03-22T11:30:24.970Z,99468.57
2023-03-22T11:33:08.962Z,99465.41
2023-03-22T11:35:38.513Z,99464.76
2023-03-22T11:38:07.710Z,99466.77
2023-03-22T11:40:38.161Z,99461.85
2023-03-22T11:43:19.930Z,99460.73
2023-03-22T11:45:59.695Z,99460.75
2023-03-22T11:48:30.153Z,99463.05
2023-03-22T11:51:17.889Z,99457.80
2023-03-22T11:53:48.402Z,99452.30
2023-03-22T11:56:18.286Z,99452.98
2023-03-22T11:59:00.146Z,99455.61
2023-03-22T12:01:51.722Z,99450.56
2023-03-22T12:04:22.872Z,99447.43
2023-03-22T12:06:53.818Z,99445.42
2023-03-22T12:09:28.978Z,99443.68
2023-03-22T12:12:02.893Z,99437.15
2023-03-22T12:14:56.168Z,99439.41
2023-03-22T12:17:29.141Z,99442.11
2023-03-22T12:20:01.079Z,99444.27
2023-03-22T12:22:33.752Z,99445.92
2023-03-22T12:25:03.710Z,99446.05
2023-03-22T12:27:35.090Z,99446.70
2023-03-22T12:30:10.047Z,99442.70
2023-03-22T12:33:14.390Z,99440.77
2023-03-22T12:35:44.272Z,99432.30
2023-03-22T12:38:18.068Z,99434.66
2023-03-22T12:40:46.428Z,99422.92
2023-03-22T12:43:33.322Z,99425.20
2023-03-22T12:46:06.813Z,99422.24
2023-03-22T12:48:46.335Z,99418.52
2023-03-22T12:51:15.031Z,99414.58
2023-03-22T12:53:46.802Z,99415.58
2023-03-22T12:56:16.940Z,99417.97
2023-03-22T12:58:50.519Z,99419.54
2023-03-22T13:01:40.319Z,99414.11
2023-03-22T13:04:28.882Z,99405.40
2023-03-22T13:06:59.375Z,99404.56
2023-03-22T13:09:49.502Z,99406.14
2023-03-22T13:12:24.682Z,99405.52
2023-03-22T13:14:56.444Z,99410.63
2023-03-22T13:17:24.881Z,99407.88
2023-03-22T13:20:14.913Z,99398.84
2023-03-22T13:22:45.961Z,99401.39
2023-03-22T13:25:17.330Z,99399.66
2023-03-22T13:27:46.426Z,99399.63
2023-03-22T13:30:21.782Z,99401.83
2023-03-22T13:32:57.605Z,99404.30
2023-03-22T13:35:44.120Z,99405.42
2023-03-22T13:38:34.223Z,99405.83
2023-03-22T13:41:21.327Z,99404.92
2023-03-22T13:43:50.715Z,99404.61
2023-03-22T13:46:22.762Z,99402.63
2023-03-22T13:48:54.858Z,99398.54
2023-03-22T13:51:27.234Z,99400.11
2023-03-22T13:54:18.782Z,99398.78
2023-03-22T13:56:48.668Z,99398.52
2023-03-22T13:59:24.535Z,99395.11
2023-03-22T14:01:56.224Z,99397.24
2023-03-22T14:04:43.368Z,99396.67
2023-03-22T14:07:50.961Z,99398.54
2023-03-22T14:10:25.908Z,99395.75
2023-03-22T14:12:54.715Z,99393.69
2023-03-22T14:15:31.515Z,99388.70
2023-03-22T14:18:00.990Z,99393.13
2023-03-22T14:20:32.056Z,99391.42
